Time;durP1;ratioP1;P1;durP2;ratioP2;P2;SDS_P1;SDS_P2;PMS_P1;PMS_P2;Temp;Humidity;BMP_temperature;BMP_pressure;BME280_temperature;BME280_humidity;BME280_pressure;Samples;Min_cycle;Max_cycle;Signal;HPM_P1;HPM_P2
2022/02/01 00:01:53;;;;;;;18.00;5.43;;;;;;;0.14;100.00;100367.19;6041193;23;20098;-86
2022/02/01 00:04:32;;;;;;;13.90;4.30;;;;;;;0.18;100.00;100368.13;5996495;23;20027;-86
2022/02/01 00:07:30;;;;;;;13.80;4.90;;;;;;;0.18;100.00;100366.41;6016602;23;20030;-87
2022/02/01 00:09:56;;;;;;;13.83;4.90;;;;;;;0.16;100.00;100356.81;6042229;23;20034;-87
2022/02/01 00:12:37;;;;;;;10.17;3.80;;;;;;;0.13;100.00;100367.16;6017935;23;20018;-86
2022/02/01 00:15:26;;;;;;;8.90;3.60;;;;;;;0.07;100.00;100382.63;6019133;23;20073;-86
2022/02/01 00:34:05;;;;;;;10.93;5.00;;;;;;;0.12;100.00;100394.00;6041534;23;20359;-86
2022/02/01 00:36:39;;;;;;;11.17;5.37;;;;;;;0.20;100.00;100393.28;6039560;23;20481;-86
2022/02/01 00:39:10;;;;;;;17.87;5.10;;;;;;;0.22;100.00;100398.50;6043231;23;20443;-86
2022/02/01 00:41:42;;;;;;;16.50;6.47;;;;;;;0.24;100.00;100400.25;6038738;23;20027;-86
2022/02/01 00:44:09;;;;;;;16.00;5.97;;;;;;;0.25;100.00;100412.44;6041404;23;20015;-85
2022/02/01 00:46:36;;;;;;;11.47;5.30;;;;;;;0.27;100.00;100412.44;6015983;23;20037;-86
2022/02/01 00:49:03;;;;;;;12.57;4.87;;;;;;;0.31;100.00;100423.75;6017827;23;20022;-86
2022/02/01 00:51:30;;;;;;;14.90;5.67;;;;;;;0.37;100.00;100416.94;6015526;23;20646;-86
2022/02/01 00:53:57;;;;;;;13.27;5.43;;;;;;;0.40;100.00;100424.78;6017772;23;20462;-86
2022/02/01 00:56:25;;;;;;;17.20;5.33;;;;;;;0.42;100.00;100423.09;6015926;23;20030;-86
2022/02/01 00:58:51;;;;;;;13.07;4.97;;;;;;;0.42;100.00;100427.41;6041706;23;20034;-87
2022/02/01 01:01:18;;;;;;;18.10;6.73;;;;;;;0.45;100.00;100422.28;6015187;23;20451;-86
2022/02/01 01:03:45;;;;;;;12.47;5.73;;;;;;;0.43;100.00;100430.06;6018081;23;20023;-87
2022/02/01 01:06:12;;;;;;;13.93;5.63;;;;;;;0.46;100.00;100424.03;6015757;23;20023;-87
2022/02/01 01:08:40;;;;;;;18.20;7.03;;;;;;;0.54;100.00;100422.44;6017812;23;20027;-86
2022/02/01 01:11:11;;;;;;;13.70;4.93;;;;;;;0.59;100.00;100425.97;6015074;23;20023;-86
2022/02/01 01:19:05;;;;;;;16.83;5.30;;;;;;;0.58;100.00;100406.00;6041099;23;20073;-85
2022/02/01 01:43:45;;;;;;;14.60;5.40;;;;;;;0.68;100.00;100394.06;6069703;23;20019;-86
2022/02/01 01:54:23;;;;;;;13.83;5.63;;;;;;;0.78;100.00;100388.13;6045679;23;20483;-84
2022/02/01 01:56:53;;;;;;;12.93;5.00;;;;;;;0.82;100.00;100388.19;6019641;23;20027;-88
2022/02/01 01:59:21;;;;;;;17.37;5.90;;;;;;;0.75;100.00;100390.66;6066354;23;20023;-87
2022/02/01 02:01:48;;;;;;;24.33;7.03;;;;;;;0.81;100.00;100388.16;6017734;23;20022;-86
2022/02/01 02:04:15;;;;;;;17.13;5.77;;;;;;;0.78;100.00;100395.94;6046040;23;20046;-84
2022/02/01 02:06:41;;;;;;;11.90;5.30;;;;;;;0.80;100.00;100386.41;6021283;23;20086;-87
2022/02/01 02:09:10;;;;;;;17.40;5.77;;;;;;;0.83;100.00;100389.06;6042070;23;20034;-86
2022/02/01 02:14:21;;;;;;;16.60;5.90;;;;;;;0.83;100.00;100389.06;6042080;23;20079;-85
2022/02/01 02:16:50;;;;;;;17.65;6.50;;;;;;;0.89;100.00;100386.56;6042648;23;20078;-85
2022/02/01 02:19:17;;;;;;;14.13;5.63;;;;;;;0.90;100.00;100390.03;6043012;23;20026;-87
2022/02/01 02:21:52;;;;;;;9.97;6.23;;;;;;;0.86;100.00;100377.84;6039968;23;20029;-86
2022/02/01 02:24:20;;;;;;;12.60;5.73;;;;;;;0.80;100.00;100376.03;6020186;23;20023;-84
2022/02/01 02:26:48;;;;;;;16.33;6.73;;;;;;;0.84;100.00;100372.59;6041484;23;20029;-87
2022/02/01 02:29:16;;;;;;;16.17;5.83;;;;;;;0.95;100.00;100373.66;6019553;23;20046;-84
2022/02/01 02:31:42;;;;;;;14.87;5.57;;;;;;;0.91;100.00;100371.84;6041383;23;20110;-87
2022/02/01 02:34:13;;;;;;;21.70;6.70;;;;;;;0.95;100.00;100377.97;6041297;23;20022;-84
2022/02/01 02:36:44;;;;;;;16.67;7.23;;;;;;;1.00;100.00;100371.97;6041413;23;20022;-85
2022/02/01 02:41:53;;;;;;;19.83;6.30;;;;;;;0.85;100.00;100363.97;6039598;23;20082;-84
2022/02/01 02:47:07;;;;;;;13.47;5.43;;;;;;;0.93;100.00;100358.88;6065405;23;20029;-84
2022/02/01 02:49:34;;;;;;;15.60;6.30;;;;;;;0.84;100.00;100367.41;6043333;23;20026;-85
2022/02/01 02:52:01;;;;;;;10.23;5.73;;;;;;;0.87;100.00;100369.19;6040915;23;20082;-86
2022/02/01 02:54:28;;;;;;;20.77;7.13;;;;;;;0.87;100.00;100353.59;6042375;23;20023;-82
2022/02/01 02:57:00;;;;;;;20.60;8.00;;;;;;;0.84;100.00;100347.50;6064160;23;20336;-87
2022/02/01 02:59:28;;;;;;;17.47;6.40;;;;;;;0.91;100.00;100351.03;6044420;23;20030;-86
2022/02/01 03:01:55;;;;;;;20.67;8.53;;;;;;;0.91;100.00;100356.22;6016732;23;20038;-86
2022/02/01 03:04:24;;;;;;;15.30;7.27;;;;;;;0.86;100.00;100354.44;6044898;23;20051;-84
2022/02/01 03:06:53;;;;;;;19.80;7.50;;;;;;;0.84;100.00;100351.78;6018637;23;20019;-85
2022/02/01 03:09:22;;;;;;;16.70;6.43;;;;;;;0.85;100.00;100343.16;6020901;23;20025;-86
2022/02/01 03:11:50;;;;;;;20.10;7.00;;;;;;;0.90;100.00;100344.09;6067999;23;20481;-83
2022/02/01 03:14:26;;;;;;;27.70;8.70;;;;;;;0.93;100.00;100338.06;6044236;23;20027;-85
2022/02/01 03:17:04;;;;;;;20.53;8.90;;;;;;;1.06;100.00;100345.16;6042926;23;20023;-85
2022/02/01 03:19:50;;;;;;;22.97;8.40;;;;;;;1.10;100.00;100346.97;6044524;23;20027;-86
2022/02/01 03:22:19;;;;;;;24.87;7.73;;;;;;;1.05;100.00;100339.09;6065005;23;20590;-85
2022/02/01 03:24:46;;;;;;;20.63;9.67;;;;;;;1.00;100.00;100339.88;6043766;23;20547;-85
2022/02/01 03:27:13;;;;;;;26.40;9.70;;;;;;;0.93;100.00;100327.66;6041966;23;20399;-82
2022/02/01 03:29:39;;;;;;;26.07;9.17;;;;;;;0.95;100.00;100339.84;6044130;23;20026;-86
2022/02/01 03:32:07;;;;;;;15.77;8.53;;;;;;;1.01;100.00;100337.31;6019785;23;20033;-86
2022/02/01 03:34:34;;;;;;;18.50;7.37;;;;;;;1.02;100.00;100336.47;6045963;23;20019;-86
2022/02/01 03:37:01;;;;;;;19.83;8.10;;;;;;;1.00;100.00;100348.53;6042987;23;20128;-87
2022/02/01 03:39:27;;;;;;;15.60;8.13;;;;;;;0.99;100.00;100352.00;6020042;23;20027;-85
2022/02/01 03:41:54;;;;;;;23.07;8.47;;;;;;;1.01;100.00;100346.81;6065459;23;20328;-85
2022/02/01 03:44:21;;;;;;;26.53;9.63;;;;;;;1.06;100.00;100347.75;6043662;23;20027;-87
2022/02/01 03:47:01;;;;;;;19.23;8.30;;;;;;;0.99;100.00;100352.00;6041056;23;20022;-85
2022/02/01 03:49:33;;;;;;;15.60;7.57;;;;;;;1.06;100.00;100356.44;6045750;23;20039;-86
2022/02/01 03:52:00;;;;;;;20.60;9.10;;;;;;;1.03;100.00;100353.81;6063867;23;20766;-85
2022/02/01 03:54:28;;;;;;;22.07;9.40;;;;;;;1.14;100.00;100351.34;6044915;23;20045;-86
2022/02/01 03:56:56;;;;;;;18.90;9.30;;;;;;;1.07;100.00;100354.72;6044051;23;20086;-87
2022/02/01 03:59:23;;;;;;;21.63;11.50;;;;;;;1.15;100.00;100347.88;6044347;23;20442;-88
2022/02/01 04:01:55;;;;;;;20.57;9.57;;;;;;;1.12;100.00;100345.25;6063848;23;20026;-87
2022/02/01 04:04:30;;;;;;;30.67;9.67;;;;;;;1.15;100.00;100332.25;6065539;23;20042;-88
2022/02/01 04:06:58;;;;;;;18.10;8.53;;;;;;;1.12;100.00;100325.31;6018023;23;20302;-87
2022/02/01 04:09:26;;;;;;;23.23;9.80;;;;;;;1.13;100.00;100315.78;6020273;23;20038;-86
2022/02/01 04:11:55;;;;;;;23.07;9.77;;;;;;;1.17;100.00;100321.88;6041948;23;20026;-86
2022/02/01 04:14:26;;;;;;;21.40;10.50;;;;;;;1.11;100.00;100318.38;6069165;23;20069;-87
2022/02/01 04:16:53;;;;;;;23.83;9.57;;;;;;;1.11;100.00;100323.56;6042524;23;20027;-86
2022/02/01 04:19:19;;;;;;;22.40;9.10;;;;;;;1.17;100.00;100317.53;6042326;23;20529;-87
2022/02/01 04:21:57;;;;;;;22.83;9.33;;;;;;;1.07;100.00;100324.38;6066073;23;20027;-83
2022/02/01 04:24:24;;;;;;;22.10;9.03;;;;;;;1.17;100.00;100311.47;6021597;23;20023;-87
2022/02/01 04:26:50;;;;;;;20.63;8.73;;;;;;;1.13;100.00;100302.75;6067480;23;20065;-84
2022/02/01 04:29:17;;;;;;;22.07;10.37;;;;;;;1.24;100.00;100298.53;6045229;23;20399;-86
2022/02/01 04:31:44;;;;;;;18.67;8.03;;;;;;;1.13;100.00;100290.63;6042539;23;20047;-84
2022/02/01 04:34:11;;;;;;;22.67;9.97;;;;;;;1.18;100.00;100289.78;6043666;23;20022;-84
2022/02/01 04:36:38;;;;;;;20.53;9.00;;;;;;;1.18;100.00;100281.97;6020624;23;20092;-87
2022/02/01 04:39:06;;;;;;;25.57;10.57;;;;;;;1.17;100.00;100269.84;6044201;23;20049;-85
2022/02/01 04:41:32;;;;;;;21.00;10.10;;;;;;;1.11;100.00;100276.75;6039556;23;20367;-88
2022/02/01 04:43:59;;;;;;;20.63;10.27;;;;;;;1.11;100.00;100275.88;6066340;23;20451;-85
2022/02/01 04:46:28;;;;;;;23.67;11.10;;;;;;;1.13;100.00;100264.59;6041103;23;20027;-87
2022/02/01 04:49:00;;;;;;;23.53;10.73;;;;;;;1.07;100.00;100263.66;6043740;23;20030;-86
2022/02/01 04:51:28;;;;;;;24.70;9.20;;;;;;;1.06;100.00;100274.94;6018681;23;20033;-85
2022/02/01 04:53:56;;;;;;;27.93;12.93;;;;;;;1.15;100.00;100277.63;6042203;23;20057;-83
2022/02/01 04:56:24;;;;;;;33.30;17.17;;;;;;;1.19;100.00;100270.75;6063808;23;20029;-84
2022/02/01 04:58:51;;;;;;;28.80;15.07;;;;;;;1.11;100.00;100266.34;6020317;23;20027;-82
2022/02/01 05:01:24;;;;;;;23.63;11.57;;;;;;;1.13;100.00;100275.00;6042961;23;20037;-86
2022/02/01 05:03:51;;;;;;;24.77;11.37;;;;;;;1.11;100.00;100284.53;6044480;23;20094;-84
2022/02/01 05:06:18;;;;;;;30.20;12.00;;;;;;;1.09;100.00;100275.84;6042082;23;20031;-86
2022/02/01 05:08:45;;;;;;;23.07;10.70;;;;;;;1.15;100.00;100269.81;6042734;23;20027;-86
2022/02/01 05:11:11;;;;;;;20.93;10.60;;;;;;;1.12;100.00;100272.41;6063729;23;20027;-85
2022/02/01 05:14:04;;;;;;;21.27;10.37;;;;;;;1.07;100.00;100282.75;6018635;23;20023;-88
2022/02/01 05:19:15;;;;;;;28.73;11.83;;;;;;;1.24;100.00;100280.34;6065752;23;20026;-88
2022/02/01 05:21:43;;;;;;;28.83;13.37;;;;;;;1.22;100.00;100279.44;6040432;23;20403;-85
2022/02/01 05:24:12;;;;;;;30.80;12.87;;;;;;;1.18;100.00;100282.88;6065579;23;20022;-86
2022/02/01 05:26:39;;;;;;;26.73;11.53;;;;;;;1.16;100.00;100283.69;6039718;23;20023;-89
2022/02/01 05:29:06;;;;;;;27.23;11.40;;;;;;;1.15;100.00;100289.75;6042305;23;20038;-87
2022/02/01 05:31:32;;;;;;;21.50;11.00;;;;;;;1.08;100.00;100294.88;6063967;23;20027;-87
2022/02/01 05:33:59;;;;;;;27.37;12.63;;;;;;;1.15;100.00;100290.63;6041938;23;20391;-89
2022/02/01 05:36:26;;;;;;;25.53;12.80;;;;;;;1.12;100.00;100282.81;6039688;23;20072;-86
2022/02/01 05:38:53;;;;;;;24.97;11.50;;;;;;;1.07;100.00;100287.06;6041183;23;20027;-84
2022/02/01 05:41:23;;;;;;;23.83;11.83;;;;;;;1.18;100.00;100287.19;6038912;23;20023;-85
2022/02/01 05:43:50;;;;;;;27.43;12.97;;;;;;;1.21;100.00;100289.84;6040936;23;20029;-86
2022/02/01 05:46:17;;;;;;;28.27;12.33;;;;;;;1.15;100.00;100285.44;6063337;23;20031;-87
2022/02/01 05:48:44;;;;;;;27.13;11.73;;;;;;;1.17;100.00;100278.50;6041598;23;20367;-87
2022/02/01 05:51:10;;;;;;;27.70;11.50;;;;;;;1.15;100.00;100282.84;6061938;23;20026;-86
2022/02/01 05:53:37;;;;;;;23.57;10.63;;;;;;;1.16;100.00;100276.78;6040430;23;20029;-85
2022/02/01 05:56:04;;;;;;;23.73;12.63;;;;;;;1.08;100.00;100281.00;6061904;23;20033;-86
2022/02/01 05:58:31;;;;;;;32.90;11.97;;;;;;;1.20;100.00;100290.72;6040635;23;20078;-86
2022/02/01 06:00:57;;;;;;;22.37;11.00;;;;;;;1.05;100.00;100297.47;6038430;23;20027;-87
2022/02/01 06:03:24;;;;;;;23.53;12.00;;;;;;;1.09;100.00;100294.06;6041212;23;20427;-87
2022/02/01 06:05:51;;;;;;;23.50;11.70;;;;;;;1.13;100.00;100290.63;6062611;23;20502;-86
2022/02/01 06:08:18;;;;;;;26.13;11.87;;;;;;;1.13;100.00;100293.22;6040357;23;20362;-87
2022/02/01 06:10:44;;;;;;;25.83;10.27;;;;;;;1.20;100.00;100307.19;6038274;23;20170;-86
2022/02/01 06:13:11;;;;;;;27.37;10.77;;;;;;;1.18;100.00;100302.81;6017200;23;20101;-86
2022/02/01 06:15:38;;;;;;;24.17;11.23;;;;;;;1.10;100.00;100306.22;6038269;23;20023;-87
2022/02/01 06:18:05;;;;;;;24.50;10.67;;;;;;;1.12;100.00;100311.44;6017135;23;20046;-86
2022/02/01 06:20:31;;;;;;;23.87;10.87;;;;;;;1.11;100.00;100304.47;6037872;23;20608;-86
2022/02/01 06:22:58;;;;;;;23.77;11.03;;;;;;;1.15;100.00;100307.97;6040449;23;20550;-87
2022/02/01 06:25:47;;;;;;;22.60;10.57;;;;;;;1.20;100.00;100303.72;6014980;23;20027;-87
2022/02/01 06:28:11;;;;;;;20.27;9.37;;;;;;;1.09;100.00;100307.06;6044061;23;20033;-87
2022/02/01 06:30:38;;;;;;;21.03;9.70;;;;;;;1.07;100.00;100305.28;6013656;23;20074;-87
2022/02/01 06:33:05;;;;;;;21.10;10.10;;;;;;;1.04;100.00;100306.13;6040774;23;20030;-86
2022/02/01 06:35:32;;;;;;;19.30;9.97;;;;;;;1.05;100.00;100307.00;6038318;23;20020;-87
2022/02/01 06:37:58;;;;;;;19.07;9.43;;;;;;;1.06;100.00;100304.41;6039128;23;20022;-87
2022/02/01 06:40:25;;;;;;;18.17;8.77;;;;;;;1.04;100.00;100297.47;6034937;23;20033;-86
2022/02/01 06:42:52;;;;;;;18.30;8.53;;;;;;;1.02;100.00;100301.78;6037193;23;20078;-85
2022/02/01 06:45:18;;;;;;;22.63;9.57;;;;;;;1.09;100.00;100303.56;6059465;23;20055;-86
2022/02/01 06:47:45;;;;;;;20.50;8.57;;;;;;;1.05;100.00;100300.06;6015121;23;20395;-87
2022/02/01 06:50:13;;;;;;;22.73;9.43;;;;;;;0.99;100.00;100292.19;6035882;23;20022;-86
2022/02/01 06:52:40;;;;;;;21.97;9.20;;;;;;;0.95;100.00;100286.94;6015503;23;20022;-88
2022/02/01 06:55:07;;;;;;;17.77;7.93;;;;;;;1.01;100.00;100287.00;6013930;23;20070;-87
2022/02/01 06:57:37;;;;;;;17.97;7.70;;;;;;;0.99;100.00;100284.38;6039969;23;20034;-87
2022/02/01 07:00:05;;;;;;;20.77;8.60;;;;;;;0.91;100.00;100288.59;6037586;23;20475;-86
2022/02/01 07:02:32;;;;;;;16.00;7.07;;;;;;;0.96;100.00;100281.75;6040585;23;20033;-86
2022/02/01 07:04:59;;;;;;;18.47;8.70;;;;;;;0.96;100.00;100284.34;6014682;23;20018;-86
2022/02/01 07:07:26;;;;;;;22.83;8.53;;;;;;;1.07;100.00;100279.28;6040030;23;20359;-86
2022/02/01 07:09:52;;;;;;;19.27;8.23;;;;;;;1.03;100.00;100274.91;6038484;23;20034;-87
2022/02/01 07:12:19;;;;;;;17.07;6.93;;;;;;;0.99;100.00;100283.50;6015918;23;20050;-86
2022/02/01 07:14:46;;;;;;;18.03;7.40;;;;;;;0.97;100.00;100274.81;6014084;23;20027;-88
2022/02/01 07:17:13;;;;;;;16.60;7.43;;;;;;;1.01;100.00;100274.88;6044556;23;20010;-80
2022/02/01 07:19:39;;;;;;;15.50;8.97;;;;;;;1.08;100.00;100263.66;6098328;23;20026;-79
2022/02/01 07:22:06;;;;;;;13.10;6.47;;;;;;;1.00;100.00;100267.91;6071174;23;20662;-80
2022/02/01 07:24:37;;;;;;;15.50;7.13;;;;;;;1.07;100.00;100274.94;6073960;23;20029;-80
2022/02/01 07:27:12;;;;;;;15.97;6.97;;;;;;;1.18;100.00;100267.28;6073530;23;20022;-80
2022/02/01 07:29:39;;;;;;;16.40;7.73;;;;;;;1.19;100.00;100281.16;6075943;23;20093;-80
2022/02/01 07:32:06;;;;;;;14.60;7.17;;;;;;;1.13;100.00;100284.56;6048199;23;20025;-81
2022/02/01 07:34:33;;;;;;;16.40;7.07;;;;;;;1.05;100.00;100274.06;6074352;23;20104;-81
2022/02/01 07:37:02;;;;;;;18.53;7.73;;;;;;;1.16;100.00;100276.78;6049373;23;20483;-81
2022/02/01 07:39:29;;;;;;;20.03;7.27;;;;;;;1.13;100.00;100285.44;6073698;23;20025;-80
2022/02/01 07:41:56;;;;;;;17.20;7.47;;;;;;;1.18;100.00;100284.59;6047419;23;20022;-79
2022/02/01 07:44:22;;;;;;;20.60;7.43;;;;;;;1.21;100.00;100279.44;6073799;23;20065;-80
2022/02/01 07:46:50;;;;;;;17.00;6.87;;;;;;;1.28;100.00;100265.66;6048383;23;20025;-81
2022/02/01 07:49:21;;;;;;;14.47;5.67;;;;;;;1.29;100.00;100260.44;6049932;23;20026;-80
2022/02/01 07:51:48;;;;;;;11.07;5.60;;;;;;;1.32;100.00;100259.59;6048495;23;20026;-80
2022/02/01 07:54:15;;;;;;;12.27;5.17;;;;;;;1.35;100.00;100260.53;6097719;23;20018;-80
2022/02/01 07:56:41;;;;;;;15.57;6.47;;;;;;;1.43;100.00;100260.59;6072352;23;20079;-79
2022/02/01 07:59:08;;;;;;;12.50;5.07;;;;;;;1.44;100.00;100266.69;6074298;23;20022;-79
2022/02/01 08:01:34;;;;;;;12.13;4.90;;;;;;;1.48;100.00;100258.03;6094036;23;20026;-79
2022/02/01 08:04:01;;;;;;;12.93;5.50;;;;;;;1.51;100.00;100260.66;6073268;23;20029;-79
2022/02/01 08:06:28;;;;;;;13.77;5.43;;;;;;;1.50;100.00;100264.97;6073308;23;20398;-79
2022/02/01 08:08:57;;;;;;;19.37;6.27;;;;;;;1.69;100.00;100258.25;6073212;23;20475;-79
2022/02/01 08:11:26;;;;;;;13.43;6.67;;;;;;;1.73;100.00;100251.31;6047348;23;20029;-80
2022/02/01 08:16:48;;;;;;;13.27;4.70;;;;;;;1.75;100.00;100245.25;6075156;23;20449;-80
2022/02/01 08:22:07;;;;;;;14.53;6.20;;;;;;;1.80;100.00;100253.13;6100790;23;20030;-79
2022/02/01 08:24:34;;;;;;;15.47;5.70;;;;;;;1.85;100.00;100247.09;6099846;23;20452;-79
2022/02/01 08:27:01;;;;;;;13.30;5.37;;;;;;;1.85;100.00;100241.00;6097849;23;20025;-79
2022/02/01 08:29:27;;;;;;;8.67;4.13;;;;;;;1.92;100.00;100245.38;6099391;23;20045;-79
2022/02/01 08:31:54;;;;;;;14.57;5.90;;;;;;;1.93;100.00;100239.31;6073117;23;20034;-81
2022/02/01 08:34:21;;;;;;;11.43;5.23;;;;;;;2.01;100.00;100247.19;6075817;23;20022;-80
2022/02/01 08:36:48;;;;;;;12.10;4.57;;;;;;;2.06;100.00;100246.38;6097611;23;20048;-79
2022/02/01 08:39:14;;;;;;;10.97;4.70;;;;;;;2.07;100.00;100237.69;6099423;23;20434;-79
2022/02/01 08:41:42;;;;;;;9.33;4.67;;;;;;;2.06;100.00;100237.69;6121190;23;20029;-80
2022/02/01 08:44:09;;;;;;;8.63;4.00;;;;;;;1.95;100.00;100228.06;6099640;23;20397;-79
2022/02/01 08:46:35;;;;;;;8.67;4.23;;;;;;;2.01;100.00;100226.34;6097871;23;20069;-79
2022/02/01 08:49:02;;;;;;;14.33;3.90;;;;;;;2.08;100.00;100223.81;6099466;23;20158;-79
2022/02/01 08:51:38;;;;;;;9.27;3.73;;;;;;;2.08;100.00;100222.94;6074180;23;20033;-80
2022/02/01 08:54:11;;;;;;;9.27;3.50;;;;;;;2.12;100.00;100215.16;6106795;23;20077;-79
2022/02/01 08:59:28;;;;;;;12.13;4.73;;;;;;;2.11;100.00;100216.03;6110935;23;20022;-80
2022/02/01 09:01:55;;;;;;;9.03;3.40;;;;;;;2.20;100.00;100210.00;6080313;23;20357;-80
2022/02/01 09:04:23;;;;;;;5.87;3.73;;;;;;;2.19;100.00;100205.66;6080661;23;20018;-78
2022/02/01 09:06:50;;;;;;;8.60;3.73;;;;;;;2.18;100.00;100199.53;6102204;23;20471;-80
2022/02/01 09:09:17;;;;;;;13.07;3.63;;;;;;;2.23;100.00;100196.97;6105722;23;20028;-80
2022/02/01 09:11:44;;;;;;;12.00;4.40;;;;;;;2.25;100.00;100190.91;6104083;23;20026;-80
2022/02/01 09:14:11;;;;;;;10.27;3.70;;;;;;;2.28;100.00;100187.47;6082131;23;20018;-80
2022/02/01 09:16:38;;;;;;;10.57;4.50;;;;;;;2.31;100.00;100173.56;6101859;23;20037;-80
2022/02/01 09:19:05;;;;;;;15.80;4.37;;;;;;;2.29;100.00;100176.16;6128439;23;20021;-80
2022/02/01 09:21:32;;;;;;;10.97;4.10;;;;;;;2.38;100.00;100165.78;6076588;23;20026;-81
2022/02/01 09:23:58;;;;;;;15.83;4.77;;;;;;;2.50;100.00;100157.13;6103032;23;20026;-80
2022/02/01 09:26:26;;;;;;;12.20;4.47;;;;;;;2.66;100.00;100145.91;6100634;23;20022;-79
2022/02/01 09:29:12;;;;;;;11.90;3.57;;;;;;;2.55;100.00;100147.59;6087060;23;20022;-79
2022/02/01 09:31:39;;;;;;;13.43;4.07;;;;;;;2.58;100.00;100142.38;6099476;23;20096;-79
2022/02/01 09:34:07;;;;;;;12.20;4.93;;;;;;;2.58;100.00;100141.53;6102622;23;20028;-80
2022/02/01 09:36:34;;;;;;;13.37;3.97;;;;;;;2.66;100.00;100125.03;6077057;23;20030;-80
2022/02/01 09:39:00;;;;;;;9.10;4.03;;;;;;;2.73;100.00;100144.19;6102226;23;20342;-80
2022/02/01 09:41:32;;;;;;;12.93;4.53;;;;;;;2.63;100.00;100132.00;6099474;23;20026;-80
2022/02/01 09:43:59;;;;;;;11.30;3.87;;;;;;;2.55;100.00;100124.13;6103512;23;20048;-80
2022/02/01 09:46:26;;;;;;;18.00;4.13;;;;;;;2.66;100.00;100119.81;6076912;23;20022;-80
2022/02/01 09:48:53;;;;;;;15.40;5.37;;;;;;;2.65;100.00;100128.50;6126679;23;20505;-81
2022/02/01 09:51:20;;;;;;;8.53;3.83;;;;;;;2.62;100.00;100112.88;6075995;23;20362;-80
2022/02/01 09:54:06;;;;;;;13.67;3.33;;;;;;;2.62;100.00;100106.78;6086360;23;20461;-80
2022/02/01 09:56:33;;;;;;;8.37;3.67;;;;;;;2.64;100.00;100092.00;6076039;23;20026;-80
2022/02/01 09:59:00;;;;;;;14.87;4.37;;;;;;;2.70;100.00;100094.63;6126296;23;20033;-78
2022/02/01 10:01:31;;;;;;;9.83;3.70;;;;;;;2.76;100.00;100092.00;6099133;23;20097;-80
2022/02/01 10:04:00;;;;;;;9.30;3.20;;;;;;;2.89;100.00;100085.09;6125556;23;20487;-80
2022/02/01 10:06:42;;;;;;;12.60;3.97;;;;;;;2.90;100.00;100082.47;6123961;23;20029;-80
2022/02/01 10:09:29;;;;;;;11.43;4.70;;;;;;;2.95;100.00;100090.31;6105979;23;20049;-80
2022/02/01 10:11:56;;;;;;;10.70;4.10;;;;;;;2.95;100.00;100092.94;6099957;23;20357;-80
2022/02/01 10:14:27;;;;;;;11.20;3.83;;;;;;;2.92;100.00;100083.34;6127328;23;20018;-81
2022/02/01 10:16:57;;;;;;;10.33;3.40;;;;;;;2.97;100.00;100076.41;6102110;23;20484;-81
2022/02/01 10:19:24;;;;;;;11.93;3.90;;;;;;;2.96;100.00;100065.97;6103323;23;20515;-81
2022/02/01 10:21:51;;;;;;;13.63;4.33;;;;;;;3.02;100.00;100064.22;6076894;23;20022;-80
2022/02/01 10:24:37;;;;;;;16.80;4.43;;;;;;;3.09;100.00;100068.56;6105527;23;20021;-80
2022/02/01 10:27:20;;;;;;;12.30;3.23;;;;;;;3.13;100.00;100061.63;6100998;23;20022;-81
2022/02/01 10:30:00;;;;;;;11.10;3.57;;;;;;;3.14;100.00;100049.44;6102795;23;20022;-80
2022/02/01 10:38:08;;;;;;;10.73;3.80;;;;;;;3.07;100.00;100030.31;6105559;23;20029;-81
2022/02/01 10:40:43;;;;;;;10.87;4.00;;;;;;;3.03;100.00;100024.22;6076574;23;20265;-81
2022/02/01 10:43:29;;;;;;;11.20;4.27;;;;;;;3.05;100.00;100025.09;6105951;23;20472;-80
2022/02/01 10:46:12;;;;;;;11.40;3.40;;;;;;;3.00;100.00;100021.59;6125172;23;20071;-81
2022/02/01 10:48:45;;;;;;;11.67;3.57;;;;;;;3.01;100.00;100017.25;6078508;23;20022;-81
2022/02/01 10:51:17;;;;;;;12.00;3.47;;;;;;;3.01;100.00;100012.03;6125357;23;20026;-80
2022/02/01 10:53:44;;;;;;;11.80;3.23;;;;;;;2.97;100.00;100003.34;6079504;23;20382;-80
2022/02/01 10:56:13;;;;;;;13.80;3.20;;;;;;;2.98;100.00;100007.69;6102233;23;20029;-81
2022/02/01 10:58:43;;;;;;;12.90;3.27;;;;;;;2.96;100.00;100005.97;6103845;23;20026;-81
2022/02/01 11:01:11;;;;;;;15.23;3.77;;;;;;;2.99;100.00;99998.13;6075342;23;20022;-80
2022/02/01 11:03:46;;;;;;;7.80;3.90;;;;;;;2.96;100.00;99991.16;6101918;23;20033;-79
2022/02/01 11:06:14;;;;;;;9.17;3.07;;;;;;;2.99;100.00;99983.34;6076634;23;20084;-81
2022/02/01 11:08:42;;;;;;;10.30;3.63;;;;;;;2.98;100.00;99967.69;6101816;23;20026;-80
2022/02/01 11:11:19;;;;;;;13.83;3.30;;;;;;;2.95;100.00;99944.22;6098527;23;20026;-80
2022/02/01 11:13:49;;;;;;;12.37;3.10;;;;;;;3.02;100.00;99938.09;6126621;23;20445;-81
2022/02/01 11:16:21;;;;;;;7.30;3.87;;;;;;;2.98;100.00;99932.03;6099885;23;20017;-80
2022/02/01 11:18:55;;;;;;;11.10;3.60;;;;;;;3.06;100.00;99925.06;6102154;23;20022;-81
2022/02/01 11:21:23;;;;;;;7.33;3.10;;;;;;;3.08;100.00;99909.38;6075181;23;20026;-80
2022/02/01 11:24:05;;;;;;;9.93;2.93;;;;;;;3.05;100.00;99902.44;6102170;23;20018;-79
2022/02/01 11:26:49;;;;;;;10.27;4.40;;;;;;;3.12;100.00;99900.69;6102532;23;20093;-80
2022/02/01 11:31:57;;;;;;;11.73;5.63;;;;;;;3.08;100.00;99881.53;6122657;23;20025;-80
2022/02/01 11:34:34;;;;;;;17.40;5.30;;;;;;;3.19;100.00;99868.44;6102282;23;20033;-80
2022/02/01 11:37:10;;;;;;;10.67;3.80;;;;;;;3.28;100.00;99863.22;6100424;23;20092;-80
2022/02/01 11:39:51;;;;;;;8.50;2.90;;;;;;;3.22;100.00;99852.81;6103205;23;20365;-82
2022/02/01 11:42:18;;;;;;;16.17;3.83;;;;;;;3.31;100.00;99844.94;6100524;23;20030;-80
2022/02/01 11:44:45;;;;;;;11.30;4.43;;;;;;;3.30;100.00;99843.19;6125659;23;20472;-81
2022/02/01 11:47:20;;;;;;;11.13;3.47;;;;;;;3.23;100.00;99828.44;6101108;23;20045;-81
2022/02/01 11:49:50;;;;;;;8.00;4.17;;;;;;;3.24;100.00;99818.84;6102994;23;20046;-80
2022/02/01 11:52:17;;;;;;;9.80;4.40;;;;;;;3.18;100.00;99811.03;6102860;23;20022;-81
2022/02/01 11:54:47;;;;;;;16.53;3.33;;;;;;;3.09;100.00;99807.59;6081027;23;20365;-81
2022/02/01 11:57:16;;;;;;;9.27;4.20;;;;;;;3.18;100.00;99798.84;6080583;23;20081;-81
2022/02/01 11:59:54;;;;;;;10.43;3.60;;;;;;;3.18;100.00;99801.47;6127725;23;20051;-81
2022/02/01 12:02:37;;;;;;;8.40;2.40;;;;;;;3.20;100.00;99793.66;6103219;23;20030;-81
2022/02/01 12:05:05;;;;;;;9.03;3.63;;;;;;;3.23;100.00;99768.41;6102440;23;20048;-82
2022/02/01 12:08:13;;;;;;;7.27;3.03;;;;;;;3.21;100.00;99764.94;6128198;23;20450;-82
2022/02/01 12:10:46;;;;;;;9.30;3.27;;;;;;;3.25;100.00;99757.94;6123951;23;20391;-83
2022/02/01 12:13:18;;;;;;;8.13;2.57;;;;;;;3.17;100.00;99747.53;6078148;23;20022;-83
2022/02/01 12:15:46;;;;;;;9.30;2.93;;;;;;;3.18;100.00;99745.78;6099738;23;20030;-81
2022/02/01 12:18:33;;;;;;;9.93;2.73;;;;;;;3.13;100.00;99735.41;6078742;23;20073;-81
2022/02/01 12:21:21;;;;;;;5.10;2.50;;;;;;;3.14;100.00;99712.78;6075919;23;20049;-81
2022/02/01 12:23:49;;;;;;;14.07;2.90;;;;;;;3.20;100.00;99717.97;6126830;23;20022;-83
2022/02/01 12:26:21;;;;;;;8.47;2.80;;;;;;;3.24;100.00;99701.41;6100434;23;20353;-81
2022/02/01 12:28:50;;;;;;;6.40;3.20;;;;;;;3.30;100.00;99697.00;6102292;23;20030;-84
2022/02/01 12:31:17;;;;;;;9.33;3.33;;;;;;;3.22;100.00;99683.16;6099392;23;20331;-82
2022/02/01 12:33:46;;;;;;;8.60;3.30;;;;;;;3.06;100.00;99669.31;6102114;23;20018;-83
2022/02/01 12:36:18;;;;;;;7.07;2.80;;;;;;;3.08;100.00;99658.88;6099802;23;20038;-80
2022/02/01 12:38:48;;;;;;;14.93;4.30;;;;;;;2.98;100.00;99639.78;6126253;23;20105;-82
2022/02/01 12:41:18;;;;;;;8.77;3.97;;;;;;;2.98;100.00;99623.28;6076248;23;20030;-82
2022/02/01 12:46:38;;;;;;;8.60;2.67;;;;;;;3.10;100.00;99607.53;6101171;23;20022;-84
2022/02/01 12:49:32;;;;;;;10.57;3.47;;;;;;;3.02;100.00;99591.06;6088193;23;20556;-81
2022/02/01 12:51:59;;;;;;;;;;;;;;;2.96;100.00;99581.53;6100066;23;20073;-81
2022/02/01 12:54:28;;;;;;;8.07;3.07;;;;;;;2.93;100.00;99568.50;6102371;23;19921;-82